EZY897 EHAM-EGKK
Flight info
| Callsign | EZY897 |
|---|---|
| Flight time | 0h 47m |
| Altitude | 24000 |
| Route | IDRID L980 ABNED Z344 AMRIV Q63 ARREK Y4 TEBRA |
| Aircraft | A319/M-SDE3FGHIRWY/LB1 |
Departure
| Time | 2026-05-06 19:10 |
|---|---|
| Airport | Amsterdam Airport Schiphol (EHAM) |
Arrival
| Time | 2026-05-06 19:58 |
|---|---|
| Airport | London Gatwick Airport (EGKK) |
| Time | Latitude | Longitude | Altitude | Speed | Heading |
|---|---|---|---|---|---|
| 2026-05-06 18:41 | 52.30722 | 4.77028 | -3 ft | 0 kts | 4° |
| 2026-05-06 18:55 | 52.30721 | 4.77028 | -3 ft | 2 kts | 4° |
| 2026-05-06 18:56 | 52.30696 | 4.77025 | -3 ft | 4 kts | 7° |
| 2026-05-06 18:56 | 52.30670 | 4.77017 | -3 ft | 4 kts | 26° |
| 2026-05-06 18:56 | 52.30656 | 4.76994 | -3 ft | 1 kts | 93° |
| 2026-05-06 18:56 | 52.30656 | 4.76993 | -3 ft | 0 kts | 93° |
| 2026-05-06 18:59 | 52.30656 | 4.76996 | -3 ft | 1 kts | 93° |
| 2026-05-06 18:59 | 52.30655 | 4.77006 | -3 ft | 1 kts | 93° |
| 2026-05-06 18:59 | 52.30654 | 4.77025 | -3 ft | 2 kts | 93° |
| 2026-05-06 18:59 | 52.30654 | 4.77046 | -3 ft | 0 kts | 93° |
| 2026-05-06 19:00 | 52.30653 | 4.77053 | -3 ft | 2 kts | 96° |
| 2026-05-06 19:00 | 52.30651 | 4.77104 | -3 ft | 11 kts | 95° |
| 2026-05-06 19:01 | 52.30646 | 4.77183 | -3 ft | 9 kts | 96° |
| 2026-05-06 19:01 | 52.30643 | 4.77234 | -3 ft | 4 kts | 93° |
| 2026-05-06 19:01 | 52.30643 | 4.77256 | -3 ft | 5 kts | 97° |
| 2026-05-06 19:01 | 52.30623 | 4.77272 | -3 ft | 7 kts | 167° |
| 2026-05-06 19:02 | 52.30546 | 4.77162 | -3 ft | 23 kts | 237° |
| 2026-05-06 19:02 | 52.30428 | 4.76861 | -3 ft | 39 kts | 238° |
| 2026-05-06 19:02 | 52.30262 | 4.76425 | -3 ft | 49 kts | 238° |
| 2026-05-06 19:02 | 52.30081 | 4.75957 | -3 ft | 44 kts | 235° |
| 2026-05-06 19:03 | 52.29931 | 4.75565 | -3 ft | 35 kts | 236° |
| 2026-05-06 19:03 | 52.29847 | 4.75340 | -2 ft | 21 kts | 245° |
| 2026-05-06 19:03 | 52.29837 | 4.75233 | -2 ft | 7 kts | 287° |
| 2026-05-06 19:03 | 52.29868 | 4.75150 | -3 ft | 11 kts | 308° |
| 2026-05-06 19:04 | 52.29942 | 4.75009 | -3 ft | 22 kts | 312° |
| 2026-05-06 19:04 | 52.30070 | 4.74772 | -3 ft | 33 kts | 311° |
| 2026-05-06 19:04 | 52.30247 | 4.74446 | -3 ft | 43 kts | 312° |
| 2026-05-06 19:04 | 52.30393 | 4.74217 | -3 ft | 17 kts | 349° |
| 2026-05-06 19:05 | 52.30495 | 4.74200 | -3 ft | 11 kts | 1° |
| 2026-05-06 19:05 | 52.30518 | 4.74201 | -3 ft | 3 kts | 1° |
| 2026-05-06 19:05 | 52.30575 | 4.74190 | -3 ft | 14 kts | 326° |
| 2026-05-06 19:05 | 52.30593 | 4.74105 | -3 ft | 5 kts | 276° |
| 2026-05-06 19:06 | 52.30594 | 4.74080 | -3 ft | 0 kts | 274° |
| 2026-05-06 19:06 | 52.30591 | 4.74077 | -3 ft | 3 kts | 237° |
| 2026-05-06 19:06 | 52.30566 | 4.74062 | -3 ft | 13 kts | 192° |
| 2026-05-06 19:06 | 52.30449 | 4.74049 | -3 ft | 17 kts | 184° |
| 2026-05-06 19:07 | 52.30418 | 4.74047 | -3 ft | 2 kts | 182° |
| 2026-05-06 19:07 | 52.30395 | 4.74047 | -3 ft | 8 kts | 180° |
| 2026-05-06 19:07 | 52.30296 | 4.74006 | -3 ft | 17 kts | 211° |
| 2026-05-06 19:07 | 52.30220 | 4.73912 | -3 ft | 0 kts | 218° |
| 2026-05-06 19:08 | 52.30205 | 4.73884 | -3 ft | 11 kts | 229° |
| 2026-05-06 19:08 | 52.30194 | 4.73848 | -3 ft | 7 kts | 255° |
| 2026-05-06 19:08 | 52.30218 | 4.73746 | -4 ft | 13 kts | 350° |
| 2026-05-06 19:09 | 52.30332 | 4.73747 | -5 ft | 7 kts | 7° |
| 2026-05-06 19:09 | 52.30333 | 4.73747 | -5 ft | 0 kts | 7° |
| 2026-05-06 19:09 | 52.30441 | 4.73759 | -4 ft | 49 kts | 3° |
| 2026-05-06 19:09 | 52.31032 | 4.73817 | -1 ft | 119 kts | 2° |
| 2026-05-06 19:10 | 52.32046 | 4.73909 | -2 ft | 171 kts | 3° |
| 2026-05-06 19:10 | 52.33245 | 4.73999 | 178 ft | 162 kts | 3° |
| 2026-05-06 19:10 | 52.34256 | 4.74092 | 453 ft | 132 kts | 5° |
| 2026-05-06 19:10 | 52.35186 | 4.73938 | 783 ft | 151 kts | 348° |
| 2026-05-06 19:11 | 52.36307 | 4.73313 | 1182 ft | 191 kts | 343° |
| 2026-05-06 19:11 | 52.37685 | 4.72436 | 1557 ft | 234 kts | 342° |
| 2026-05-06 19:11 | 52.39338 | 4.71376 | 1875 ft | 278 kts | 342° |
| 2026-05-06 19:11 | 52.41208 | 4.70186 | 1939 ft | 282 kts | 342° |
| 2026-05-06 19:12 | 52.42955 | 4.69061 | 1954 ft | 258 kts | 342° |
| 2026-05-06 19:12 | 52.44562 | 4.68012 | 1952 ft | 238 kts | 342° |
| 2026-05-06 19:12 | 52.46036 | 4.67032 | 1957 ft | 220 kts | 342° |
| 2026-05-06 19:12 | 52.47395 | 4.66101 | 1950 ft | 204 kts | 342° |
| 2026-05-06 19:13 | 52.48647 | 4.65223 | 1945 ft | 187 kts | 341° |
| 2026-05-06 19:13 | 52.49799 | 4.64398 | 1955 ft | 178 kts | 342° |
| 2026-05-06 19:13 | 52.50546 | 4.63855 | 1960 ft | 182 kts | 341° |
| 2026-05-06 19:13 | 52.52219 | 4.62656 | 2762 ft | 218 kts | 341° |
| 2026-05-06 19:14 | 52.53743 | 4.61640 | 3251 ft | 255 kts | 342° |
| 2026-05-06 19:14 | 52.55515 | 4.60502 | 3717 ft | 292 kts | 342° |
| 2026-05-06 19:14 | 52.57525 | 4.59232 | 4189 ft | 326 kts | 341° |
| 2026-05-06 19:14 | 52.59706 | 4.57728 | 4668 ft | 356 kts | 333° |
| 2026-05-06 19:15 | 52.61615 | 4.55060 | 5167 ft | 360 kts | 310° |
| 2026-05-06 19:15 | 52.62471 | 4.52681 | 5639 ft | 359 kts | 295° |
| 2026-05-06 19:15 | 52.63010 | 4.48623 | 6353 ft | 370 kts | 272° |
| 2026-05-06 19:15 | 52.62188 | 4.43182 | 7255 ft | 378 kts | 241° |
| 2026-05-06 19:16 | 52.61144 | 4.40889 | 7709 ft | 379 kts | 226° |
| 2026-05-06 19:16 | 52.59224 | 4.37918 | 8405 ft | 379 kts | 223° |
| 2026-05-06 19:16 | 52.57271 | 4.34989 | 9122 ft | 381 kts | 223° |
| 2026-05-06 19:16 | 52.55310 | 4.32064 | 9843 ft | 382 kts | 223° |
| 2026-05-06 19:17 | 52.53341 | 4.29122 | 10510 ft | 384 kts | 223° |
| 2026-05-06 19:17 | 52.51365 | 4.26158 | 11184 ft | 386 kts | 223° |
| 2026-05-06 19:17 | 52.49375 | 4.23176 | 11870 ft | 389 kts | 224° |
| 2026-05-06 19:17 | 52.47369 | 4.20176 | 12651 ft | 389 kts | 224° |
| 2026-05-06 19:18 | 52.45372 | 4.17192 | 13590 ft | 388 kts | 224° |
| 2026-05-06 19:18 | 52.43381 | 4.14211 | 14452 ft | 386 kts | 224° |
| 2026-05-06 19:18 | 52.41406 | 4.11250 | 15322 ft | 384 kts | 224° |
| 2026-05-06 19:18 | 52.39438 | 4.08301 | 16213 ft | 382 kts | 224° |
| 2026-05-06 19:19 | 52.37482 | 4.05381 | 17134 ft | 379 kts | 224° |
| 2026-05-06 19:19 | 52.35538 | 4.02489 | 18079 ft | 376 kts | 224° |
| 2026-05-06 19:19 | 52.33609 | 3.99625 | 18940 ft | 373 kts | 224° |
| 2026-05-06 19:19 | 52.31706 | 3.96800 | 19796 ft | 369 kts | 224° |
| 2026-05-06 19:20 | 52.29816 | 3.93995 | 20677 ft | 364 kts | 224° |
| 2026-05-06 19:20 | 52.27950 | 3.91225 | 21587 ft | 360 kts | 224° |
| 2026-05-06 19:20 | 52.26112 | 3.88503 | 22533 ft | 354 kts | 224° |
| 2026-05-06 19:20 | 52.24299 | 3.85822 | 23467 ft | 350 kts | 224° |
| 2026-05-06 19:21 | 52.22467 | 3.83113 | 23813 ft | 361 kts | 224° |
| 2026-05-06 19:21 | 52.20586 | 3.80328 | 23947 ft | 377 kts | 224° |
| 2026-05-06 19:21 | 52.18608 | 3.77405 | 23980 ft | 394 kts | 224° |
| 2026-05-06 19:21 | 52.16532 | 3.74348 | 23984 ft | 410 kts | 223° |
| 2026-05-06 19:22 | 52.14378 | 3.71184 | 23980 ft | 424 kts | 223° |
| 2026-05-06 19:22 | 52.12152 | 3.67919 | 23980 ft | 437 kts | 223° |
| 2026-05-06 19:22 | 52.09861 | 3.64561 | 23979 ft | 448 kts | 223° |
| 2026-05-06 19:22 | 52.07519 | 3.61134 | 23980 ft | 458 kts | 223° |
| 2026-05-06 19:23 | 52.05125 | 3.57639 | 23980 ft | 467 kts | 223° |
| 2026-05-06 19:23 | 52.02691 | 3.54093 | 23979 ft | 475 kts | 223° |
| 2026-05-06 19:23 | 52.00231 | 3.50513 | 24231 ft | 470 kts | 223° |
| 2026-05-06 19:23 | 51.97901 | 3.46865 | 24188 ft | 457 kts | 229° |
| 2026-05-06 19:24 | 51.95911 | 3.42933 | 24007 ft | 447 kts | 234° |
| 2026-05-06 19:24 | 51.94154 | 3.38802 | 23967 ft | 444 kts | 238° |
| 2026-05-06 19:24 | 51.92493 | 3.34600 | 23974 ft | 443 kts | 238° |
| 2026-05-06 19:24 | 51.90822 | 3.30396 | 23975 ft | 444 kts | 237° |
| 2026-05-06 19:25 | 51.89095 | 3.26252 | 23972 ft | 444 kts | 236° |
| 2026-05-06 19:25 | 51.87306 | 3.22181 | 23972 ft | 444 kts | 234° |
| 2026-05-06 19:25 | 51.85478 | 3.18152 | 23976 ft | 444 kts | 236° |
| 2026-05-06 19:25 | 51.83900 | 3.13864 | 23976 ft | 444 kts | 242° |
| 2026-05-06 19:26 | 51.82457 | 3.09452 | 23975 ft | 444 kts | 243° |
| 2026-05-06 19:26 | 51.81037 | 3.05025 | 23975 ft | 444 kts | 243° |
| 2026-05-06 19:26 | 51.79630 | 3.00583 | 23980 ft | 444 kts | 243° |
| 2026-05-06 19:26 | 51.78230 | 2.96131 | 23982 ft | 445 kts | 244° |
| 2026-05-06 19:27 | 51.76830 | 2.91670 | 23980 ft | 445 kts | 244° |
| 2026-05-06 19:27 | 51.75446 | 2.87280 | 23981 ft | 445 kts | 243° |
| 2026-05-06 19:27 | 51.74037 | 2.82828 | 23983 ft | 446 kts | 243° |
| 2026-05-06 19:27 | 51.72620 | 2.78377 | 23983 ft | 446 kts | 243° |
| 2026-05-06 19:28 | 51.71194 | 2.73932 | 23985 ft | 447 kts | 243° |
| 2026-05-06 19:28 | 51.69779 | 2.69468 | 23985 ft | 447 kts | 245° |
| 2026-05-06 19:28 | 51.68751 | 2.64750 | 23989 ft | 446 kts | 256° |
| 2026-05-06 19:28 | 51.68236 | 2.59823 | 23991 ft | 446 kts | 262° |
| 2026-05-06 19:29 | 51.67798 | 2.54868 | 23988 ft | 447 kts | 262° |
| 2026-05-06 19:29 | 51.67356 | 2.49920 | 23992 ft | 447 kts | 262° |
| 2026-05-06 19:29 | 51.66911 | 2.44967 | 23992 ft | 447 kts | 262° |
| 2026-05-06 19:29 | 51.66461 | 2.40017 | 23993 ft | 447 kts | 261° |
| 2026-05-06 19:30 | 51.66004 | 2.35065 | 23996 ft | 447 kts | 261° |
| 2026-05-06 19:30 | 51.65543 | 2.30113 | 23996 ft | 447 kts | 261° |
| 2026-05-06 19:30 | 51.65079 | 2.25162 | 23995 ft | 447 kts | 261° |
| 2026-05-06 19:30 | 51.64613 | 2.20212 | 23997 ft | 448 kts | 261° |
| 2026-05-06 19:31 | 51.64144 | 2.15250 | 24002 ft | 448 kts | 261° |
| 2026-05-06 19:31 | 51.63676 | 2.10300 | 23999 ft | 448 kts | 261° |
| 2026-05-06 19:31 | 51.62756 | 2.00379 | 24001 ft | 448 kts | 262° |
| 2026-05-06 19:32 | 51.62300 | 1.95416 | 24004 ft | 448 kts | 262° |
| 2026-05-06 19:32 | 51.61838 | 1.90453 | 24003 ft | 448 kts | 261° |
| 2026-05-06 19:32 | 51.61424 | 1.87469 | 24005 ft | 449 kts | 254° |
| 2026-05-06 19:32 | 51.60424 | 1.83214 | 24006 ft | 449 kts | 244° |
| 2026-05-06 19:33 | 51.58731 | 1.78995 | 24005 ft | 451 kts | 231° |
| 2026-05-06 19:33 | 51.56676 | 1.75192 | 24005 ft | 451 kts | 229° |
| 2026-05-06 19:33 | 51.54619 | 1.71476 | 24006 ft | 451 kts | 229° |
| 2026-05-06 19:33 | 51.52523 | 1.67722 | 24005 ft | 451 kts | 229° |
| 2026-05-06 19:34 | 51.50427 | 1.63971 | 24006 ft | 451 kts | 229° |
| 2026-05-06 19:34 | 51.48575 | 1.59925 | 24008 ft | 450 kts | 240° |
| 2026-05-06 19:34 | 51.47136 | 1.55461 | 24006 ft | 450 kts | 246° |
| 2026-05-06 19:34 | 51.46021 | 1.50785 | 23997 ft | 448 kts | 256° |
| 2026-05-06 19:35 | 51.45267 | 1.45944 | 23976 ft | 448 kts | 262° |
| 2026-05-06 19:35 | 51.44809 | 1.41325 | 23992 ft | 446 kts | 259° |
| 2026-05-06 19:35 | 51.43757 | 1.36803 | 24013 ft | 424 kts | 239° |
| 2026-05-06 19:35 | 51.41873 | 1.33327 | 24002 ft | 405 kts | 221° |
| 2026-05-06 19:36 | 51.39560 | 1.30729 | 24013 ft | 414 kts | 212° |
| 2026-05-06 19:36 | 51.36993 | 1.28447 | 24010 ft | 430 kts | 209° |
| 2026-05-06 19:36 | 51.34322 | 1.26134 | 24008 ft | 443 kts | 210° |
| 2026-05-06 19:36 | 51.31639 | 1.23599 | 24009 ft | 451 kts | 213° |
| 2026-05-06 19:37 | 51.29018 | 1.20825 | 24008 ft | 453 kts | 216° |
| 2026-05-06 19:37 | 51.26462 | 1.17858 | 24011 ft | 454 kts | 218° |
| 2026-05-06 19:37 | 51.23958 | 1.14796 | 24014 ft | 454 kts | 219° |
| 2026-05-06 19:37 | 51.21464 | 1.11699 | 24015 ft | 454 kts | 219° |
| 2026-05-06 19:38 | 51.18965 | 1.08626 | 24017 ft | 454 kts | 218° |
| 2026-05-06 19:38 | 51.16442 | 1.05587 | 23851 ft | 454 kts | 218° |
| 2026-05-06 19:38 | 51.13930 | 1.02624 | 23178 ft | 445 kts | 217° |
| 2026-05-06 19:38 | 51.11441 | 0.99734 | 22325 ft | 440 kts | 217° |
| 2026-05-06 19:39 | 51.08970 | 0.96889 | 21502 ft | 436 kts | 217° |
| 2026-05-06 19:39 | 51.06557 | 0.93997 | 20695 ft | 432 kts | 223° |
| 2026-05-06 19:39 | 51.04656 | 0.90724 | 19951 ft | 426 kts | 234° |
| 2026-05-06 19:40 | 51.03074 | 0.86759 | 19180 ft | 422 kts | 243° |
| 2026-05-06 19:40 | 51.01856 | 0.82568 | 18423 ft | 413 kts | 249° |
| 2026-05-06 19:40 | 51.00840 | 0.78390 | 17597 ft | 400 kts | 250° |
| 2026-05-06 19:40 | 50.99871 | 0.74300 | 16770 ft | 391 kts | 250° |
| 2026-05-06 19:41 | 50.98870 | 0.70338 | 15953 ft | 383 kts | 248° |
| 2026-05-06 19:41 | 50.97816 | 0.66498 | 15182 ft | 376 kts | 246° |
| 2026-05-06 19:41 | 50.96722 | 0.62773 | 14417 ft | 368 kts | 245° |
| 2026-05-06 19:41 | 50.95616 | 0.59153 | 13648 ft | 362 kts | 245° |
| 2026-05-06 19:42 | 50.94514 | 0.55596 | 12809 ft | 357 kts | 245° |
| 2026-05-06 19:42 | 50.93428 | 0.52089 | 12182 ft | 353 kts | 245° |
| 2026-05-06 19:42 | 50.92365 | 0.48635 | 12003 ft | 353 kts | 245° |
| 2026-05-06 19:42 | 50.91510 | 0.45005 | 11914 ft | 352 kts | 261° |
| 2026-05-06 19:43 | 50.91543 | 0.41173 | 11447 ft | 347 kts | 279° |
| 2026-05-06 19:43 | 50.92059 | 0.37450 | 10945 ft | 345 kts | 285° |
| 2026-05-06 19:43 | 50.92575 | 0.33766 | 10449 ft | 339 kts | 282° |
| 2026-05-06 19:43 | 50.93010 | 0.30181 | 9964 ft | 324 kts | 281° |
| 2026-05-06 19:44 | 50.93421 | 0.26727 | 9433 ft | 316 kts | 281° |
| 2026-05-06 19:44 | 50.93652 | 0.24774 | 9125 ft | 314 kts | 281° |
| 2026-05-06 19:44 | 50.94052 | 0.21394 | 8602 ft | 311 kts | 281° |
| 2026-05-06 19:44 | 50.94451 | 0.18040 | 8117 ft | 308 kts | 281° |
| 2026-05-06 19:45 | 50.94848 | 0.14718 | 7983 ft | 306 kts | 281° |
| 2026-05-06 19:45 | 50.95245 | 0.11395 | 8007 ft | 307 kts | 281° |
| 2026-05-06 19:45 | 50.95642 | 0.08066 | 8012 ft | 307 kts | 281° |
| 2026-05-06 19:45 | 50.96039 | 0.04731 | 8002 ft | 307 kts | 281° |
| 2026-05-06 19:46 | 50.96436 | 0.01412 | 8011 ft | 307 kts | 281° |
| 2026-05-06 19:46 | 50.96832 | -0.01914 | 8005 ft | 306 kts | 281° |
| 2026-05-06 19:46 | 50.97226 | -0.05237 | 8001 ft | 307 kts | 281° |
| 2026-05-06 19:46 | 50.97621 | -0.08563 | 7614 ft | 305 kts | 281° |
| 2026-05-06 19:47 | 50.98005 | -0.11806 | 7108 ft | 293 kts | 281° |
| 2026-05-06 19:47 | 50.98373 | -0.14925 | 6616 ft | 283 kts | 281° |
| 2026-05-06 19:47 | 50.98734 | -0.17973 | 6101 ft | 279 kts | 281° |
| 2026-05-06 19:47 | 50.99083 | -0.20945 | 5584 ft | 276 kts | 281° |
| 2026-05-06 19:48 | 50.99432 | -0.23934 | 5067 ft | 276 kts | 281° |
| 2026-05-06 19:48 | 50.99780 | -0.26927 | 4553 ft | 275 kts | 281° |
| 2026-05-06 19:48 | 51.00120 | -0.29910 | 3996 ft | 277 kts | 281° |
| 2026-05-06 19:48 | 51.00452 | -0.32914 | 3516 ft | 275 kts | 281° |
| 2026-05-06 19:49 | 51.00775 | -0.35891 | 3070 ft | 272 kts | 281° |
| 2026-05-06 19:49 | 51.01245 | -0.38675 | 2957 ft | 249 kts | 300° |
| 2026-05-06 19:49 | 51.02358 | -0.40557 | 2978 ft | 227 kts | 332° |
| 2026-05-06 19:49 | 51.03785 | -0.41530 | 2981 ft | 222 kts | 341° |
| 2026-05-06 19:50 | 51.05244 | -0.42343 | 2983 ft | 222 kts | 342° |
| 2026-05-06 19:50 | 51.06705 | -0.43138 | 2946 ft | 223 kts | 342° |
| 2026-05-06 19:50 | 51.07465 | -0.43551 | 2896 ft | 216 kts | 342° |
| 2026-05-06 19:50 | 51.08883 | -0.44323 | 2594 ft | 214 kts | 342° |
| 2026-05-06 19:51 | 51.10261 | -0.45099 | 2475 ft | 205 kts | 342° |
| 2026-05-06 19:51 | 51.11598 | -0.45247 | 2469 ft | 188 kts | 17° |
| 2026-05-06 19:51 | 51.12697 | -0.44209 | 2405 ft | 183 kts | 38° |
| 2026-05-06 19:51 | 51.13630 | -0.42846 | 2113 ft | 186 kts | 63° |
| 2026-05-06 19:52 | 51.13677 | -0.40618 | 2027 ft | 236 kts | 96° |
| 2026-05-06 19:52 | 51.13231 | -0.37742 | 1941 ft | 282 kts | 105° |
| 2026-05-06 19:52 | 51.12692 | -0.34863 | 1947 ft | 260 kts | 107° |
| 2026-05-06 19:52 | 51.11748 | -0.32603 | 2209 ft | 230 kts | 139° |
| 2026-05-06 19:53 | 51.10521 | -0.31408 | 2808 ft | 190 kts | 163° |
| 2026-05-06 19:53 | 51.09196 | -0.31395 | 2639 ft | 208 kts | 200° |
| 2026-05-06 19:53 | 51.08057 | -0.32820 | 2845 ft | 217 kts | 243° |
| 2026-05-06 19:53 | 51.07428 | -0.35250 | 3064 ft | 269 kts | 254° |
| 2026-05-06 19:54 | 51.07304 | -0.38410 | 2962 ft | 291 kts | 285° |
| 2026-05-06 19:54 | 51.08213 | -0.40991 | 2968 ft | 252 kts | 320° |
| 2026-05-06 19:54 | 51.09657 | -0.41984 | 2985 ft | 216 kts | 358° |
| 2026-05-06 19:54 | 51.10938 | -0.41267 | 2974 ft | 184 kts | 36° |
| 2026-05-06 19:55 | 51.11575 | -0.39629 | 2728 ft | 172 kts | 66° |
| 2026-05-06 19:55 | 51.12005 | -0.37956 | 2484 ft | 156 kts | 68° |
| 2026-05-06 19:55 | 51.12277 | -0.36306 | 2198 ft | 155 kts | 73° |
| 2026-05-06 19:55 | 51.12547 | -0.34604 | 1821 ft | 162 kts | 72° |
| 2026-05-06 19:56 | 51.12826 | -0.32867 | 1563 ft | 160 kts | 76° |
| 2026-05-06 19:56 | 51.13043 | -0.31171 | 1449 ft | 152 kts | 74° |
| 2026-05-06 19:56 | 51.13308 | -0.29570 | 1338 ft | 148 kts | 73° |
| 2026-05-06 19:56 | 51.13519 | -0.27969 | 1172 ft | 147 kts | 75° |
| 2026-05-06 19:57 | 51.13753 | -0.26419 | 988 ft | 140 kts | 73° |
| 2026-05-06 19:57 | 51.13984 | -0.24955 | 726 ft | 135 kts | 75° |
| 2026-05-06 19:57 | 51.14196 | -0.23501 | 501 ft | 134 kts | 74° |
| 2026-05-06 19:57 | 51.14393 | -0.22067 | 311 ft | 130 kts | 78° |
| 2026-05-06 19:58 | 51.14583 | -0.20718 | 233 ft | 120 kts | 78° |
| 2026-05-06 19:58 | 51.14740 | -0.19579 | 209 ft | 85 kts | 78° |
| 2026-05-06 19:58 | 51.14830 | -0.18927 | 212 ft | 36 kts | 77° |
| 2026-05-06 19:58 | 51.14852 | -0.18775 | 206 ft | 4 kts | 74° |
| 2026-05-06 19:59 | 51.14860 | -0.18736 | 209 ft | 11 kts | 70° |
| 2026-05-06 19:59 | 51.14926 | -0.18546 | 208 ft | 21 kts | 54° |
| 2026-05-06 19:59 | 51.14990 | -0.18415 | 210 ft | 15 kts | 52° |
| 2026-05-06 19:59 | 51.15055 | -0.18289 | 209 ft | 12 kts | 48° |
| 2026-05-06 20:00 | 51.15069 | -0.18263 | 206 ft | 2 kts | 49° |
| 2026-05-06 20:00 | 51.15089 | -0.18227 | 218 ft | 5 kts | 46° |
| 2026-05-06 20:00 | 51.15097 | -0.18215 | 210 ft | 2 kts | 41° |
| 2026-05-06 20:00 | 51.15109 | -0.18202 | 209 ft | 0 kts | 34° |
| 2026-05-06 20:01 | 51.15110 | -0.18201 | 210 ft | 1 kts | 34° |
| 2026-05-06 20:01 | 51.15122 | -0.18194 | 208 ft | 0 kts | 13° |
| 2026-05-06 20:02 | 51.15124 | -0.18194 | 208 ft | 2 kts | 10° |
| 2026-05-06 20:02 | 51.15144 | -0.18196 | 205 ft | 2 kts | 352° |
| 2026-05-06 20:02 | 51.15172 | -0.18203 | 205 ft | 3 kts | 352° |
| 2026-05-06 20:02 | 51.15213 | -0.18218 | 207 ft | 8 kts | 343° |
| 2026-05-06 20:03 | 51.15316 | -0.18255 | 207 ft | 23 kts | 348° |
| 2026-05-06 20:03 | 51.15437 | -0.18235 | 205 ft | 15 kts | 63° |
| 2026-05-06 20:03 | 51.15463 | -0.18062 | 212 ft | 17 kts | 78° |
| 2026-05-06 20:03 | 51.15489 | -0.17867 | 205 ft | 17 kts | 77° |
| 2026-05-06 20:04 | 51.15502 | -0.17784 | 205 ft | 7 kts | 76° |
| 2026-05-06 20:04 | 51.15505 | -0.17766 | 213 ft | 0 kts | 72° |
| 2026-05-06 20:04 | 51.15510 | -0.17757 | 205 ft | 1 kts | 51° |
| 2026-05-06 20:04 | 51.15516 | -0.17754 | 205 ft | 1 kts | 17° |
| 2026-05-06 20:05 | 51.15550 | -0.17753 | 205 ft | 5 kts | 352° |
| 2026-05-06 20:05 | 51.15576 | -0.17762 | 205 ft | 0 kts | 348° |
| 2026-05-06 20:05 | 51.15579 | -0.17763 | 205 ft | 0 kts | 349° |
| 2026-05-06 20:05 | 51.15582 | -0.17764 | 205 ft | 0 kts | 348° |
| 2026-05-06 20:06 | 51.15581 | -0.17764 | 205 ft | 1 kts | 348° |